Time;durP1;ratioP1;P1;durP2;ratioP2;P2;SDS_P1;SDS_P2;PMS_P1;PMS_P2;Temp;Humidity;BMP_temperature;BMP_pressure;BME280_temperature;BME280_humidity;BME280_pressure;Samples;Min_cycle;Max_cycle;Signal;HPM_P1;HPM_P2
2022/09/16 00:01:20;;;;;;;4.03;1.70;;;;;;;;;;6150993;23;20041;-86
2022/09/16 00:03:46;;;;;;;8.15;1.88;;;;;;;;;;6150068;23;20013;-86
2022/09/16 00:06:16;;;;;;;5.25;1.75;;;;;;;;;;6151474;23;20020;-86
2022/09/16 00:08:44;;;;;;;8.07;2.13;;;;;;;;;;6151655;23;20092;-86
2022/09/16 00:11:10;;;;;;;6.93;1.90;;;;;;;;;;6124177;23;20018;-86
2022/09/16 00:13:36;;;;;;;6.35;2.00;;;;;;;;;;6150460;23;20041;-86
2022/09/16 00:16:06;;;;;;;8.45;2.72;;;;;;;;;;6148576;23;20447;-86
2022/09/16 00:18:32;;;;;;;5.68;2.10;;;;;;;;;;6149879;23;20024;-86
2022/09/16 00:20:58;;;;;;;9.68;2.60;;;;;;;;;;6151039;23;20083;-87
2022/09/16 00:23:24;;;;;;;9.02;2.50;;;;;;;;;;6151239;23;20362;-87
2022/09/16 00:25:51;;;;;;;6.63;2.00;;;;;;;;;;6150150;23;20040;-86
2022/09/16 00:28:18;;;;;;;7.75;1.80;;;;;;;;;;6149515;23;20088;-87
2022/09/16 00:30:44;;;;;;;7.00;1.92;;;;;;;;;;6150067;23;20017;-86
2022/09/16 00:33:10;;;;;;;7.55;2.35;;;;;;;;;;6149265;23;20386;-87
2022/09/16 00:35:36;;;;;;;7.07;2.00;;;;;;;;;;6151186;23;20446;-87
2022/09/16 00:38:02;;;;;;;4.75;1.55;;;;;;;;;;6150652;23;20300;-87
2022/09/16 00:40:28;;;;;;;11.02;1.88;;;;;;;;;;6149045;23;20093;-87
2022/09/16 00:42:54;;;;;;;11.55;2.42;;;;;;;;;;6150796;23;20036;-87
2022/09/16 00:45:22;;;;;;;6.45;1.67;;;;;;;;;;6149447;23;20324;-87
2022/09/16 00:47:49;;;;;;;6.40;1.60;;;;;;;;;;6150921;23;20017;-87
2022/09/16 00:50:37;;;;;;;4.57;2.15;;;;;;;;;;6151742;23;20013;-87
2022/09/16 00:53:04;;;;;;;7.63;1.83;;;;;;;;;;6148528;23;20024;-87
2022/09/16 00:55:31;;;;;;;5.00;1.85;;;;;;;;;;6151528;23;20020;-87
2022/09/16 00:58:01;;;;;;;10.20;1.88;;;;;;;;;;6131394;23;20048;-87
2022/09/16 01:00:27;;;;;;;6.97;2.17;;;;;;;;;;6150264;23;20013;-87
2022/09/16 01:02:53;;;;;;;4.38;1.98;;;;;;;;;;6150035;23;20025;-87
2022/09/16 01:05:21;;;;;;;5.22;1.63;;;;;;;;;;6149856;23;20099;-87
2022/09/16 01:07:48;;;;;;;8.25;2.08;;;;;;;;;;6148405;23;20021;-86
2022/09/16 01:10:17;;;;;;;6.80;2.05;;;;;;;;;;6151186;23;20092;-87
2022/09/16 01:12:44;;;;;;;6.25;1.70;;;;;;;;;;6150384;23;20014;-87
2022/09/16 01:15:11;;;;;;;8.88;1.95;;;;;;;;;;6151180;23;20129;-87
2022/09/16 01:17:56;;;;;;;7.70;1.73;;;;;;;;;;6150822;23;20089;-87
2022/09/16 01:20:25;;;;;;;6.70;1.85;;;;;;;;;;6151749;23;20018;-87
2022/09/16 01:23:00;;;;;;;5.68;1.70;;;;;;;;;;6147791;23;20075;-87
2022/09/16 01:25:49;;;;;;;8.90;1.90;;;;;;;;;;6149878;23;20064;-87
2022/09/16 01:28:15;;;;;;;7.95;2.58;;;;;;;;;;6151032;23;20013;-87
2022/09/16 01:30:44;;;;;;;9.25;1.98;;;;;;;;;;6151185;23;20014;-87
2022/09/16 01:33:26;;;;;;;6.72;2.03;;;;;;;;;;6150403;23;20017;-87
2022/09/16 01:35:58;;;;;;;8.82;1.80;;;;;;;;;;6150917;23;20083;-87
2022/09/16 01:38:36;;;;;;;7.70;2.00;;;;;;;;;;6150962;23;20049;-87
2022/09/16 01:41:13;;;;;;;8.77;2.35;;;;;;;;;;6153075;23;20455;-87
2022/09/16 01:43:46;;;;;;;11.80;2.60;;;;;;;;;;6157801;23;20510;-87
2022/09/16 01:46:31;;;;;;;11.32;2.67;;;;;;;;;;6151594;23;20075;-87
2022/09/16 01:49:00;;;;;;;8.95;2.25;;;;;;;;;;6150444;23;20028;-87
2022/09/16 01:51:36;;;;;;;9.65;2.38;;;;;;;;;;6151764;23;20024;-87
2022/09/16 01:54:11;;;;;;;8.10;2.08;;;;;;;;;;6152211;23;20431;-87
2022/09/16 01:56:50;;;;;;;10.25;2.72;;;;;;;;;;6149079;23;20043;-87
2022/09/16 01:59:21;;;;;;;15.43;3.15;;;;;;;;;;6152344;23;20177;-87
2022/09/16 02:02:20;;;;;;;9.20;2.55;;;;;;;;;;6126572;23;20047;-87
2022/09/16 02:04:49;;;;;;;8.27;2.33;;;;;;;;;;6126597;23;20013;-87
2022/09/16 02:07:17;;;;;;;9.60;2.25;;;;;;;;;;6152014;23;20017;-87
2022/09/16 02:09:50;;;;;;;9.65;2.53;;;;;;;;;;6153104;23;20129;-87
2022/09/16 02:12:20;;;;;;;8.70;2.28;;;;;;;;;;6126685;23;20423;-87
2022/09/16 02:14:47;;;;;;;6.22;1.52;;;;;;;;;;6152082;23;20100;-87
2022/09/16 02:17:19;;;;;;;9.45;2.33;;;;;;;;;;6152461;23;20017;-87
2022/09/16 02:19:48;;;;;;;8.50;2.42;;;;;;;;;;6152194;23;20054;-86
2022/09/16 02:22:20;;;;;;;8.88;2.00;;;;;;;;;;6150374;23;20415;-87
2022/09/16 02:24:47;;;;;;;8.55;2.08;;;;;;;;;;6152424;23;20028;-87
2022/09/16 02:27:19;;;;;;;7.18;2.55;;;;;;;;;;6150156;23;20025;-87
2022/09/16 02:29:51;;;;;;;8.93;1.80;;;;;;;;;;6151495;23;20018;-87
2022/09/16 02:32:18;;;;;;;6.07;2.00;;;;;;;;;;6150749;23;20438;-87
2022/09/16 02:34:48;;;;;;;5.72;1.90;;;;;;;;;;6151243;23;20013;-87
2022/09/16 02:37:16;;;;;;;10.27;2.40;;;;;;;;;;6152454;23;20014;-86
2022/09/16 02:39:45;;;;;;;7.90;1.90;;;;;;;;;;6150645;23;20096;-87
2022/09/16 02:42:11;;;;;;;5.93;2.17;;;;;;;;;;6150653;23;20013;-87
2022/09/16 02:44:37;;;;;;;7.68;2.13;;;;;;;;;;6150917;23;20013;-87
2022/09/16 02:47:09;;;;;;;8.45;2.53;;;;;;;;;;6149583;23;20014;-86
2022/09/16 02:50:02;;;;;;;6.72;2.35;;;;;;;;;;6150925;23;20466;-87
2022/09/16 02:52:41;;;;;;;16.85;1.98;;;;;;;;;;6150824;23;20020;-87
2022/09/16 02:55:15;;;;;;;7.40;2.45;;;;;;;;;;6150215;23;20017;-87
2022/09/16 02:57:41;;;;;;;10.65;2.55;;;;;;;;;;6131229;23;20057;-87
2022/09/16 03:00:08;;;;;;;6.30;1.92;;;;;;;;;;6150714;23;20347;-87
2022/09/16 03:02:35;;;;;;;11.50;2.10;;;;;;;;;;6151908;23;20032;-87
2022/09/16 03:05:02;;;;;;;10.30;1.90;;;;;;;;;;6149809;23;20017;-87
2022/09/16 03:07:28;;;;;;;6.07;1.80;;;;;;;;;;6149963;23;20021;-87
2022/09/16 03:09:55;;;;;;;5.63;1.85;;;;;;;;;;6149535;23;20018;-87
2022/09/16 03:12:39;;;;;;;9.63;2.40;;;;;;;;;;6151971;23;20024;-87
2022/09/16 03:15:09;;;;;;;8.68;2.20;;;;;;;;;;6150501;23;20024;-87
2022/09/16 03:17:38;;;;;;;11.98;3.13;;;;;;;;;;6149460;23;20026;-86
2022/09/16 03:20:22;;;;;;;8.10;2.22;;;;;;;;;;6150358;23;20449;-87
2022/09/16 03:23:07;;;;;;;10.27;2.40;;;;;;;;;;6151689;23;20156;-86
2022/09/16 03:25:42;;;;;;;7.35;2.42;;;;;;;;;;6151449;23;20013;-87
2022/09/16 03:28:19;;;;;;;8.93;2.00;;;;;;;;;;6152108;23;20028;-87
2022/09/16 03:30:54;;;;;;;7.15;2.00;;;;;;;;;;6152136;23;20023;-87
2022/09/16 03:33:26;;;;;;;11.10;2.83;;;;;;;;;;6150196;23;20020;-87
2022/09/16 03:35:55;;;;;;;5.50;1.90;;;;;;;;;;6150591;23;20013;-87
2022/09/16 03:38:22;;;;;;;9.52;2.10;;;;;;;;;;6151732;23;20498;-87
2022/09/16 03:40:48;;;;;;;9.68;2.20;;;;;;;;;;6151915;23;20035;-87
2022/09/16 03:43:15;;;;;;;9.43;2.85;;;;;;;;;;6151798;23;20041;-87
2022/09/16 03:45:44;;;;;;;13.18;2.42;;;;;;;;;;6149837;23;20091;-87
2022/09/16 03:48:11;;;;;;;5.75;2.75;;;;;;;;;;6150812;23;20025;-86
2022/09/16 03:50:37;;;;;;;7.45;2.30;;;;;;;;;;6154962;23;20014;-87
2022/09/16 03:53:03;;;;;;;6.28;2.00;;;;;;;;;;6149844;23;20017;-87
2022/09/16 03:55:29;;;;;;;6.82;2.00;;;;;;;;;;6149824;23;20038;-87
2022/09/16 03:57:55;;;;;;;14.77;2.80;;;;;;;;;;6152372;23;20088;-87
2022/09/16 04:00:22;;;;;;;6.65;2.17;;;;;;;;;;6132758;23;20526;-87
2022/09/16 04:02:48;;;;;;;8.18;2.25;;;;;;;;;;6149602;23;20483;-87
2022/09/16 04:05:14;;;;;;;8.85;2.63;;;;;;;;;;6150147;23;20018;-86
2022/09/16 04:07:40;;;;;;;10.02;2.25;;;;;;;;;;6149686;23;20018;-87
2022/09/16 04:10:06;;;;;;;13.18;3.28;;;;;;;;;;6149756;23;20017;-87
2022/09/16 04:12:33;;;;;;;8.18;2.28;;;;;;;;;;6151520;23;20085;-87
2022/09/16 04:14:59;;;;;;;7.40;2.10;;;;;;;;;;6151398;23;20021;-87
2022/09/16 04:17:25;;;;;;;7.38;2.63;;;;;;;;;;6151034;23;20057;-87
2022/09/16 04:19:51;;;;;;;9.20;2.90;;;;;;;;;;6151391;23;20509;-86
2022/09/16 04:22:17;;;;;;;6.65;2.22;;;;;;;;;;6151796;23;20014;-86
2022/09/16 04:24:43;;;;;;;14.50;2.40;;;;;;;;;;6151443;23;20165;-86
2022/09/16 04:27:10;;;;;;;10.70;2.20;;;;;;;;;;6150678;23;20329;-87
2022/09/16 04:29:36;;;;;;;18.67;3.00;;;;;;;;;;6151764;23;20014;-86
2022/09/16 04:32:02;;;;;;;9.32;2.10;;;;;;;;;;6150730;23;20484;-87
2022/09/16 04:34:28;;;;;;;18.70;2.50;;;;;;;;;;6149571;23;20431;-87
2022/09/16 04:36:54;;;;;;;11.70;2.42;;;;;;;;;;6151559;23;20064;-87
2022/09/16 04:39:20;;;;;;;14.60;2.85;;;;;;;;;;6151194;23;20013;-87
2022/09/16 04:41:46;;;;;;;9.27;2.50;;;;;;;;;;6149495;23;20346;-87
2022/09/16 04:44:13;;;;;;;6.97;2.10;;;;;;;;;;6151080;23;20438;-86
2022/09/16 04:46:39;;;;;;;7.85;2.38;;;;;;;;;;6150577;23;20386;-87
2022/09/16 04:49:05;;;;;;;9.43;2.20;;;;;;;;;;6149216;23;20324;-87
2022/09/16 04:51:32;;;;;;;10.70;2.50;;;;;;;;;;6149855;23;20014;-87
2022/09/16 04:53:58;;;;;;;10.77;2.50;;;;;;;;;;6149353;23;20017;-87
2022/09/16 04:56:27;;;;;;;9.73;2.35;;;;;;;;;;6124721;23;20021;-87
2022/09/16 04:58:54;;;;;;;5.63;2.13;;;;;;;;;;6124775;23;20020;-87
2022/09/16 05:01:21;;;;;;;8.90;2.03;;;;;;;;;;6149845;23;20462;-87
2022/09/16 05:03:53;;;;;;;9.80;1.98;;;;;;;;;;6151417;23;20019;-87
2022/09/16 05:06:23;;;;;;;8.25;2.35;;;;;;;;;;6151399;23;20130;-87
2022/09/16 05:08:50;;;;;;;5.80;2.20;;;;;;;;;;6149292;23;20025;-87
2022/09/16 05:11:17;;;;;;;7.88;1.80;;;;;;;;;;6149374;23;20351;-86
2022/09/16 05:13:44;;;;;;;9.98;2.20;;;;;;;;;;6124560;23;20093;-87
2022/09/16 05:16:12;;;;;;;5.38;1.80;;;;;;;;;;6149070;23;20125;-87
2022/09/16 05:18:39;;;;;;;6.28;1.85;;;;;;;;;;6148228;23;20029;-87
2022/09/16 05:21:06;;;;;;;12.00;2.63;;;;;;;;;;6148433;23;20018;-87
2022/09/16 05:23:32;;;;;;;12.63;3.40;;;;;;;;;;6150676;23;20014;-87
2022/09/16 05:26:02;;;;;;;11.13;2.40;;;;;;;;;;6149134;23;20013;-86
2022/09/16 05:28:29;;;;;;;9.50;2.00;;;;;;;;;;6148366;23;20021;-87
2022/09/16 05:30:55;;;;;;;9.63;2.00;;;;;;;;;;6149432;23;20017;-87
2022/09/16 05:33:21;;;;;;;8.40;2.13;;;;;;;;;;6149162;23;20014;-87
2022/09/16 05:35:47;;;;;;;12.75;2.47;;;;;;;;;;6151433;23;20014;-86
2022/09/16 05:38:13;;;;;;;10.32;2.10;;;;;;;;;;6150283;23;20103;-86
2022/09/16 05:40:39;;;;;;;7.10;2.30;;;;;;;;;;6149095;23;20506;-87
2022/09/16 05:43:05;;;;;;;7.47;2.20;;;;;;;;;;6150039;23;20017;-87
2022/09/16 05:45:31;;;;;;;8.98;2.28;;;;;;;;;;6151128;23;20454;-87
2022/09/16 05:47:57;;;;;;;8.27;2.30;;;;;;;;;;6150690;23;20114;-91
2022/09/16 05:50:23;;;;;;;9.68;2.55;;;;;;;;;;6149098;23;20013;-86
2022/09/16 05:52:49;;;;;;;8.68;2.60;;;;;;;;;;6150346;23;20129;-86
2022/09/16 05:55:15;;;;;;;12.30;3.05;;;;;;;;;;6153052;23;20121;-88
2022/09/16 05:57:41;;;;;;;13.50;2.30;;;;;;;;;;6122020;23;20092;-84
2022/09/16 06:00:08;;;;;;;6.75;2.75;;;;;;;;;;6131043;22;20051;-88
2022/09/16 06:02:34;;;;;;;7.90;2.20;;;;;;;;;;6148399;23;20025;-88
2022/09/16 06:05:00;;;;;;;9.00;2.20;;;;;;;;;;6152084;23;20017;-88
2022/09/16 06:07:26;;;;;;;10.93;2.45;;;;;;;;;;6153441;23;20017;-88
2022/09/16 06:09:52;;;;;;;10.75;2.75;;;;;;;;;;6149956;23;20090;-87
2022/09/16 06:12:18;;;;;;;9.57;2.80;;;;;;;;;;6149441;23;20045;-88
2022/09/16 06:14:44;;;;;;;12.15;2.30;;;;;;;;;;6150473;23;20455;-87
2022/09/16 06:17:10;;;;;;;9.52;2.70;;;;;;;;;;6149246;23;20435;-87
2022/09/16 06:19:36;;;;;;;11.00;2.50;;;;;;;;;;6148911;23;20049;-86
2022/09/16 06:22:02;;;;;;;5.88;2.10;;;;;;;;;;6148206;23;20017;-86
2022/09/16 06:24:28;;;;;;;7.32;2.00;;;;;;;;;;6150826;23;20009;-86
2022/09/16 06:26:54;;;;;;;10.52;2.05;;;;;;;;;;6150195;23;20018;-84
2022/09/16 06:29:20;;;;;;;7.35;2.47;;;;;;;;;;6149046;23;20013;-85
2022/09/16 06:31:46;;;;;;;10.65;2.58;;;;;;;;;;6149945;23;20025;-86
2022/09/16 06:34:19;;;;;;;7.53;2.40;;;;;;;;;;6148112;23;20010;-86
2022/09/16 06:36:46;;;;;;;7.40;2.30;;;;;;;;;;6150913;23;20024;-86
2022/09/16 06:39:13;;;;;;;10.75;2.30;;;;;;;;;;6148272;23;20018;-86
2022/09/16 06:41:39;;;;;;;9.02;2.30;;;;;;;;;;6148102;23;20021;-85
2022/09/16 06:44:05;;;;;;;6.00;2.30;;;;;;;;;;6150992;23;20055;-85
2022/09/16 06:46:31;;;;;;;11.43;2.30;;;;;;;;;;6152187;23;20025;-86
2022/09/16 06:48:58;;;;;;;12.98;3.22;;;;;;;;;;6150896;23;20013;-87
2022/09/16 06:51:25;;;;;;;9.73;2.70;;;;;;;;;;6151165;23;20013;-87
2022/09/16 06:53:51;;;;;;;10.27;2.50;;;;;;;;;;6151885;23;20029;-88
2022/09/16 06:56:20;;;;;;;11.57;2.88;;;;;;;;;;6149843;23;20431;-86
2022/09/16 06:58:47;;;;;;;7.40;2.60;;;;;;;;;;6140630;23;20020;-85
2022/09/16 07:01:24;;;;;;;8.93;2.67;;;;;;;;;;6151611;23;20096;-89
2022/09/16 07:03:51;;;;;;;11.90;3.58;;;;;;;;;;6127148;23;20446;-89
2022/09/16 07:06:18;;;;;;;9.88;2.13;;;;;;;;;;6153149;23;20013;-85
2022/09/16 07:08:44;;;;;;;11.23;2.90;;;;;;;;;;6149875;23;20017;-83
2022/09/16 07:11:14;;;;;;;8.98;2.50;;;;;;;;;;6150494;23;20021;-84
2022/09/16 07:13:41;;;;;;;10.18;2.50;;;;;;;;;;6151763;23;20009;-84
2022/09/16 07:16:08;;;;;;;12.82;3.17;;;;;;;;;;6151500;23;20041;-83
2022/09/16 07:18:34;;;;;;;11.50;3.25;;;;;;;;;;6149988;23;20097;-84
2022/09/16 07:21:07;;;;;;;12.57;2.50;;;;;;;;;;6151057;23;20021;-84
2022/09/16 07:23:35;;;;;;;14.00;3.53;;;;;;;;;;6152034;23;20036;-84
2022/09/16 07:26:20;;;;;;;12.43;2.83;;;;;;;;;;6151373;23;20557;-84
2022/09/16 07:28:47;;;;;;;14.95;3.22;;;;;;;;;;6151827;23;20014;-86
2022/09/16 07:31:18;;;;;;;13.30;2.80;;;;;;;;;;6152599;23;20441;-86
2022/09/16 07:33:46;;;;;;;8.70;2.95;;;;;;;;;;6150800;23;20064;-83
2022/09/16 07:36:13;;;;;;;10.80;2.70;;;;;;;;;;6148304;23;20044;-83
2022/09/16 07:38:39;;;;;;;11.40;2.50;;;;;;;;;;6150733;23;20029;-83
2022/09/16 07:41:10;;;;;;;16.15;3.03;;;;;;;;;;6149405;23;20013;-83
2022/09/16 07:43:36;;;;;;;9.38;2.30;;;;;;;;;;6149039;23;20017;-83
2022/09/16 07:46:03;;;;;;;7.53;2.20;;;;;;;;;;6149901;23;20017;-83
2022/09/16 07:48:30;;;;;;;12.13;2.85;;;;;;;;;;6150963;23;20106;-83
2022/09/16 07:50:56;;;;;;;10.02;2.10;;;;;;;;;;6149686;23;20021;-83
2022/09/16 07:53:22;;;;;;;9.15;2.75;;;;;;;;;;6149425;23;20014;-83
2022/09/16 07:55:49;;;;;;;7.32;2.15;;;;;;;;;;6148787;23;20021;-83
2022/09/16 07:58:15;;;;;;;7.72;2.22;;;;;;;;;;6149461;23;20018;-83
2022/09/16 08:00:43;;;;;;;9.32;2.45;;;;;;;;;;6143839;23;20079;-85
2022/09/16 08:03:08;;;;;;;7.30;2.13;;;;;;;;;;6148966;23;20102;-83
2022/09/16 08:05:35;;;;;;;11.77;2.47;;;;;;;;;;6152655;23;20045;-84
2022/09/16 08:08:01;;;;;;;5.70;2.33;;;;;;;;;;6148028;23;20017;-84
2022/09/16 08:10:27;;;;;;;9.35;2.25;;;;;;;;;;6150971;23;20013;-89
2022/09/16 08:12:54;;;;;;;5.82;2.38;;;;;;;;;;6152302;23;20018;-84
2022/09/16 08:15:20;;;;;;;5.07;2.05;;;;;;;;;;6148483;23;20021;-91
2022/09/16 08:17:46;;;;;;;7.40;2.58;;;;;;;;;;6151535;23;20026;-84
2022/09/16 08:20:12;;;;;;;9.73;2.90;;;;;;;;;;6149575;23;20052;-85
2022/09/16 08:22:38;;;;;;;9.48;2.10;;;;;;;;;;6150404;23;20014;-85
2022/09/16 08:25:04;;;;;;;15.23;3.60;;;;;;;;;;6146693;23;20017;-84
2022/09/16 08:27:30;;;;;;;12.43;2.63;;;;;;;;;;6149753;23;20104;-84
2022/09/16 08:29:59;;;;;;;10.85;2.72;;;;;;;;;;6147948;23;20439;-85
2022/09/16 08:32:25;;;;;;;7.75;2.70;;;;;;;;;;6151803;23;20017;-85
2022/09/16 08:34:52;;;;;;;9.90;2.92;;;;;;;;;;6150909;23;20382;-84
2022/09/16 08:37:18;;;;;;;9.07;2.67;;;;;;;;;;6151185;23;20017;-85
2022/09/16 08:39:44;;;;;;;9.98;3.10;;;;;;;;;;6149191;23;20543;-85
2022/09/16 08:42:25;;;;;;;8.38;2.22;;;;;;;;;;6150383;23;20025;-84
2022/09/16 08:44:59;;;;;;;5.80;1.95;;;;;;;;;;6149506;23;20032;-85
2022/09/16 08:47:37;;;;;;;8.45;2.22;;;;;;;;;;6148627;23;20021;-84
2022/09/16 08:50:05;;;;;;;6.70;2.30;;;;;;;;;;6147622;23;20267;-85
2022/09/16 08:52:31;;;;;;;8.05;2.22;;;;;;;;;;6148918;23;20383;-84
2022/09/16 08:55:12;;;;;;;9.25;2.50;;;;;;;;;;6150887;23;20406;-84
2022/09/16 08:57:42;;;;;;;6.90;2.15;;;;;;;;;;6151302;23;20017;-85
2022/09/16 09:00:16;;;;;;;9.55;2.50;;;;;;;;;;6121525;23;20511;-85
2022/09/16 09:02:52;;;;;;;12.90;2.53;;;;;;;;;;6149402;23;20033;-85
2022/09/16 09:05:21;;;;;;;8.98;2.22;;;;;;;;;;6151439;23;20014;-85
2022/09/16 09:07:57;;;;;;;8.80;2.22;;;;;;;;;;6148286;23;20021;-84
2022/09/16 09:10:26;;;;;;;6.13;1.92;;;;;;;;;;6151650;23;20013;-86
2022/09/16 09:12:58;;;;;;;12.05;3.33;;;;;;;;;;6149421;23;20158;-84
2022/09/16 09:15:30;;;;;;;14.02;3.15;;;;;;;;;;6149840;23;20451;-85
2022/09/16 09:17:56;;;;;;;8.32;2.25;;;;;;;;;;6149165;23;20044;-84
2022/09/16 09:20:22;;;;;;;7.70;2.90;;;;;;;;;;6150357;23;20045;-84
2022/09/16 09:22:57;;;;;;;8.77;2.42;;;;;;;;;;6148731;23;20028;-82
2022/09/16 09:25:34;;;;;;;11.02;3.10;;;;;;;;;;6151096;23;20036;-85
2022/09/16 09:28:00;;;;;;;8.40;2.97;;;;;;;;;;6150606;23;20018;-85
2022/09/16 09:30:27;;;;;;;6.15;2.50;;;;;;;;;;6149446;23;20013;-86
2022/09/16 09:33:00;;;;;;;7.53;2.28;;;;;;;;;;6149569;23;20447;-85
2022/09/16 09:35:33;;;;;;;8.73;2.65;;;;;;;;;;6149738;23;20018;-86
2022/09/16 09:38:31;;;;;;;11.80;2.40;;;;;;;;;;6150335;23;20019;-87
2022/09/16 09:41:08;;;;;;;10.68;2.55;;;;;;;;;;6150648;23;20013;-87
2022/09/16 09:43:37;;;;;;;9.95;2.72;;;;;;;;;;6148831;23;20018;-87
2022/09/16 09:46:14;;;;;;;7.82;2.40;;;;;;;;;;6148703;23;20124;-85
2022/09/16 09:48:46;;;;;;;6.93;1.90;;;;;;;;;;6150001;23;20477;-82
2022/09/16 09:51:18;;;;;;;7.13;1.98;;;;;;;;;;6147518;23;20093;-83
2022/09/16 09:53:48;;;;;;;12.98;2.28;;;;;;;;;;6147792;23;20021;-82
2022/09/16 09:56:23;;;;;;;12.18;2.65;;;;;;;;;;6148831;23;20097;-81
2022/09/16 09:59:04;;;;;;;8.95;2.20;;;;;;;;;;6150529;23;20041;-82
2022/09/16 10:01:31;;;;;;;7.72;2.17;;;;;;;;;;6123021;23;20037;-82
2022/09/16 10:03:59;;;;;;;13.50;2.45;;;;;;;;;;6149504;23;20025;-82
2022/09/16 10:06:27;;;;;;;5.65;1.98;;;;;;;;;;6146805;23;20025;-81
2022/09/16 10:08:55;;;;;;;7.32;2.22;;;;;;;;;;6146910;23;20093;-82
2022/09/16 10:11:26;;;;;;;6.50;2.17;;;;;;;;;;6150379;23;20278;-83
2022/09/16 10:13:54;;;;;;;8.10;2.10;;;;;;;;;;6148935;23;20107;-82
2022/09/16 10:16:32;;;;;;;10.45;2.33;;;;;;;;;;6149657;23;20628;-82
2022/09/16 10:19:02;;;;;;;5.00;1.90;;;;;;;;;;6149672;23;20453;-86
2022/09/16 10:21:46;;;;;;;6.45;2.00;;;;;;;;;;6152052;23;20458;-84
2022/09/16 10:24:28;;;;;;;8.23;2.00;;;;;;;;;;6151617;23;20017;-85
2022/09/16 10:26:54;;;;;;;7.15;2.28;;;;;;;;;;6150096;23;20041;-84
2022/09/16 10:29:20;;;;;;;8.48;2.40;;;;;;;;;;6150496;23;20351;-84
2022/09/16 10:31:46;;;;;;;14.73;3.03;;;;;;;;;;6150708;23;20073;-85
2022/09/16 10:34:38;;;;;;;10.52;2.90;;;;;;;;;;6148498;23;20017;-85
2022/09/16 10:37:14;;;;;;;9.27;2.75;;;;;;;;;;6149078;23;20386;-84
2022/09/16 10:39:43;;;;;;;6.25;2.55;;;;;;;;;;6150686;23;20022;-85
2022/09/16 10:42:16;;;;;;;12.25;2.95;;;;;;;;;;6150745;23;20013;-83
2022/09/16 10:44:44;;;;;;;6.97;2.00;;;;;;;;;;6151401;23;20017;-95
2022/09/16 10:47:30;;;;;;;11.90;2.58;;;;;;;;;;6155840;23;20022;-94
2022/09/16 10:50:00;;;;;;;9.68;2.53;;;;;;;;;;6151863;23;20014;-87
2022/09/16 10:52:31;;;;;;;6.22;2.10;;;;;;;;;;6151860;23;20028;-89
2022/09/16 10:54:57;;;;;;;8.98;2.40;;;;;;;;;;6150136;23;20017;-87
2022/09/16 10:57:42;;;;;;;7.45;2.35;;;;;;;;;;6151691;23;20336;-84
2022/09/16 11:00:24;;;;;;;12.95;2.55;;;;;;;;;;6124654;23;20431;-80
2022/09/16 11:02:50;;;;;;;12.18;3.08;;;;;;;;;;6147652;23;20083;-84
2022/09/16 11:05:24;;;;;;;8.43;2.95;;;;;;;;;;6145131;23;20017;-85
2022/09/16 11:08:06;;;;;;;8.20;2.42;;;;;;;;;;6146504;23;20022;-85
2022/09/16 11:10:37;;;;;;;9.82;2.10;;;;;;;;;;6149938;23;20541;-84
2022/09/16 11:13:12;;;;;;;10.98;2.80;;;;;;;;;;6146290;23;20451;-85
2022/09/16 11:15:49;;;;;;;13.75;3.20;;;;;;;;;;6149083;23;20458;-85
2022/09/16 11:18:27;;;;;;;10.90;2.88;;;;;;;;;;6151473;23;20029;-84
2022/09/16 11:20:53;;;;;;;10.25;2.30;;;;;;;;;;6149729;23;20017;-84
2022/09/16 11:23:26;;;;;;;10.90;2.42;;;;;;;;;;6145955;23;20768;-84
2022/09/16 11:25:55;;;;;;;9.65;2.38;;;;;;;;;;6149962;23;20024;-84
2022/09/16 11:28:40;;;;;;;10.65;3.08;;;;;;;;;;6144028;23;20355;-85
2022/09/16 11:31:20;;;;;;;11.38;3.05;;;;;;;;;;6148643;23;20315;-84
2022/09/16 11:33:55;;;;;;;11.57;3.03;;;;;;;;;;6147253;23;20025;-84
2022/09/16 11:36:30;;;;;;;7.50;3.05;;;;;;;;;;6148856;23;20473;-85
2022/09/16 11:39:06;;;;;;;10.93;3.00;;;;;;;;;;6148709;23;20039;-84
2022/09/16 11:41:32;;;;;;;13.07;2.70;;;;;;;;;;6149307;23;20022;-85
2022/09/16 11:44:25;;;;;;;11.02;2.90;;;;;;;;;;6150681;23;20470;-84
2022/09/16 11:46:56;;;;;;;10.93;3.03;;;;;;;;;;6149356;23;20022;-84
2022/09/16 11:49:22;;;;;;;11.60;2.90;;;;;;;;;;6151518;23;20013;-84
2022/09/16 11:51:57;;;;;;;13.75;2.83;;;;;;;;;;6151936;23;20020;-84
2022/09/16 11:54:39;;;;;;;9.00;2.77;;;;;;;;;;6151184;23;20020;-84
2022/09/16 11:57:10;;;;;;;9.00;2.45;;;;;;;;;;6148617;23;20020;-84
2022/09/16 11:59:39;;;;;;;9.93;2.88;;;;;;;;;;6148888;23;20093;-84
2022/09/16 12:02:24;;;;;;;11.23;2.90;;;;;;;;;;6123067;23;20104;-84
2022/09/16 12:04:53;;;;;;;12.18;3.03;;;;;;;;;;6149879;23;20044;-83
2022/09/16 12:07:24;;;;;;;14.18;3.50;;;;;;;;;;6149960;23;20028;-84
2022/09/16 12:09:50;;;;;;;11.63;3.38;;;;;;;;;;6150172;23;20068;-83
2022/09/16 12:12:19;;;;;;;9.07;3.25;;;;;;;;;;6152094;23;20009;-84
2022/09/16 12:14:48;;;;;;;8.00;2.50;;;;;;;;;;6149976;23;20652;-84
2022/09/16 12:17:14;;;;;;;9.88;2.60;;;;;;;;;;6151303;23;20093;-84
2022/09/16 12:19:45;;;;;;;8.85;2.58;;;;;;;;;;6151684;23;20084;-83
2022/09/16 12:22:22;;;;;;;9.32;2.60;;;;;;;;;;6150364;23;20017;-84
2022/09/16 12:24:53;;;;;;;7.18;2.42;;;;;;;;;;6149121;23;20018;-84
2022/09/16 12:27:38;;;;;;;6.45;2.15;;;;;;;;;;6151125;23;20045;-84
2022/09/16 12:30:17;;;;;;;6.75;2.13;;;;;;;;;;6150864;23;20017;-84
2022/09/16 12:32:59;;;;;;;8.15;2.10;;;;;;;;;;6151279;23;20009;-85
2022/09/16 12:35:31;;;;;;;7.15;1.98;;;;;;;;;;6150811;23;20064;-86
2022/09/16 12:37:57;;;;;;;9.63;1.95;;;;;;;;;;6150698;23;20014;-83
2022/09/16 12:40:28;;;;;;;8.70;1.77;;;;;;;;;;6150800;23;20017;-83
2022/09/16 12:43:00;;;;;;;15.00;2.28;;;;;;;;;;6149226;23;20013;-83
2022/09/16 12:45:26;;;;;;;5.45;1.58;;;;;;;;;;6150157;23;20445;-83
2022/09/16 12:48:15;;;;;;;4.90;1.48;;;;;;;;;;6148804;23;20021;-83
2022/09/16 12:50:56;;;;;;;3.65;1.50;;;;;;;;;;6150044;23;20347;-92
2022/09/16 12:53:34;;;;;;;11.23;2.17;;;;;;;;;;6148776;23;20009;-83
2022/09/16 12:56:10;;;;;;;9.38;1.95;;;;;;;;;;6149179;23;20358;-83
2022/09/16 12:58:51;;;;;;;9.95;3.45;;;;;;;;;;6150492;23;20017;-83
2022/09/16 13:01:37;;;;;;;7.65;2.28;;;;;;;;;;6134713;23;20040;-84
2022/09/16 13:04:23;;;;;;;7.55;2.40;;;;;;;;;;6147904;23;20033;-83
2022/09/16 13:06:51;;;;;;;10.43;2.75;;;;;;;;;;6149949;23;20014;-84
2022/09/16 13:09:25;;;;;;;11.50;2.53;;;;;;;;;;6147375;23;20096;-83
2022/09/16 13:11:55;;;;;;;10.02;2.47;;;;;;;;;;6150497;23;20490;-84
2022/09/16 13:14:27;;;;;;;12.02;2.85;;;;;;;;;;6149688;23;20009;-83
2022/09/16 13:16:55;;;;;;;9.25;2.25;;;;;;;;;;6150149;23;20093;-83
2022/09/16 13:19:21;;;;;;;8.32;2.33;;;;;;;;;;6151160;23;20024;-83
2022/09/16 13:21:47;;;;;;;9.75;2.75;;;;;;;;;;6149892;23;20017;-83
2022/09/16 13:24:17;;;;;;;10.68;2.88;;;;;;;;;;6149812;23;20069;-82
2022/09/16 13:26:44;;;;;;;17.63;3.25;;;;;;;;;;6148894;23;20022;-82
2022/09/16 13:29:29;;;;;;;11.70;3.20;;;;;;;;;;6149749;23;20053;-82
2022/09/16 13:31:55;;;;;;;16.63;3.05;;;;;;;;;;6150350;23;20009;-82
2022/09/16 13:34:21;;;;;;;10.40;2.78;;;;;;;;;;6148955;23;20105;-83
2022/09/16 13:36:47;;;;;;;7.80;2.67;;;;;;;;;;6145585;23;20028;-83
2022/09/16 13:39:15;;;;;;;7.68;2.67;;;;;;;;;;6148408;23;20029;-83
2022/09/16 13:41:41;;;;;;;10.60;2.70;;;;;;;;;;6148283;23;20022;-83
2022/09/16 13:44:25;;;;;;;8.77;2.38;;;;;;;;;;6151307;23;20076;-83
2022/09/16 13:46:52;;;;;;;7.95;2.10;;;;;;;;;;6147744;23;20030;-83
2022/09/16 13:49:26;;;;;;;9.75;2.53;;;;;;;;;;6151078;23;20025;-84
2022/09/16 13:51:52;;;;;;;9.68;2.65;;;;;;;;;;6149175;23;20430;-83
2022/09/16 13:54:21;;;;;;;9.15;2.85;;;;;;;;;;6151686;23;20017;-85
2022/09/16 13:56:50;;;;;;;10.55;2.40;;;;;;;;;;6151122;23;20035;-88
2022/09/16 13:59:25;;;;;;;7.28;2.10;;;;;;;;;;6150859;23;20167;-84
2022/09/16 14:01:57;;;;;;;8.35;2.10;;;;;;;;;;6122802;23;20058;-84
2022/09/16 14:04:23;;;;;;;5.15;1.85;;;;;;;;;;6151749;23;20025;-84
2022/09/16 14:06:52;;;;;;;6.90;2.03;;;;;;;;;;6151649;23;20383;-83
2022/09/16 14:09:23;;;;;;;5.15;1.75;;;;;;;;;;6152986;23;20021;-84
2022/09/16 14:11:49;;;;;;;6.97;2.13;;;;;;;;;;6150135;23;20022;-83
2022/09/16 14:14:17;;;;;;;5.60;1.55;;;;;;;;;;6151174;23;20017;-82
2022/09/16 14:16:44;;;;;;;9.30;2.03;;;;;;;;;;6150570;23;20022;-84
2022/09/16 14:19:27;;;;;;;9.05;2.58;;;;;;;;;;6149875;23;20447;-82
2022/09/16 14:22:12;;;;;;;14.63;3.10;;;;;;;;;;6152378;23;20049;-82
2022/09/16 14:24:39;;;;;;;13.48;3.60;;;;;;;;;;6152516;23;20109;-82
2022/09/16 14:27:17;;;;;;;12.45;2.70;;;;;;;;;;6150443;23;20017;-82
2022/09/16 14:29:53;;;;;;;15.95;2.58;;;;;;;;;;6151119;23;20104;-83
2022/09/16 14:32:19;;;;;;;9.35;2.60;;;;;;;;;;6151420;23;20024;-83
2022/09/16 14:34:45;;;;;;;9.07;2.13;;;;;;;;;;6151322;23;20509;-82
2022/09/16 14:37:16;;;;;;;6.88;2.08;;;;;;;;;;6151538;23;20557;-82
2022/09/16 14:39:43;;;;;;;5.65;2.25;;;;;;;;;;6149944;23;20025;-81
2022/09/16 14:42:14;;;;;;;10.30;2.05;;;;;;;;;;6151172;23;20072;-82
2022/09/16 14:44:42;;;;;;;9.27;2.15;;;;;;;;;;6152766;23;20013;-82
2022/09/16 14:47:27;;;;;;;6.38;2.00;;;;;;;;;;6151709;23;20013;-82
2022/09/16 14:49:56;;;;;;;13.65;2.75;;;;;;;;;;6149093;23;20029;-82
2022/09/16 14:52:23;;;;;;;9.15;2.67;;;;;;;;;;6151477;23;20049;-83
2022/09/16 14:54:50;;;;;;;9.30;2.83;;;;;;;;;;6151403;23;20068;-83
2022/09/16 14:57:23;;;;;;;14.43;2.78;;;;;;;;;;6151895;23;20014;-83